Time;durP1;ratioP1;P1;durP2;ratioP2;P2;SDS_P1;SDS_P2;PMS_P1;PMS_P2;Temp;Humidity;BMP_temperature;BMP_pressure;BME280_temperature;BME280_humidity;BME280_pressure;Samples;Min_cycle;Max_cycle;Signal;HPM_P1;HPM_P2
2023/09/17 00:04:33;;;;;;;12.8;9.2;;;;;;;14.27;89.75;;;;;
2023/09/17 00:14:33;;;;;;;13.9;8.8;;;;;;;14.23;89.65;;;;;
2023/09/17 00:24:33;;;;;;;13.9;8.8;;;;;;;14.07;91.52;;;;;
2023/09/17 00:35:33;;;;;;;13.9;8.8;;;;;;;13.99;91.06;;;;;
2023/09/17 00:45:33;;;;;;;13.8;9.7;;;;;;;13.97;91.85;;;;;
2023/09/17 00:56:33;;;;;;;13.8;9.7;;;;;;;13.93;91.62;;;;;
2023/09/17 01:06:34;;;;;;;12.9;9.6;;;;;;;14.04;92.08;;;;;
2023/09/17 01:17:34;;;;;;;12.9;9.6;;;;;;;14.02;91.96;;;;;
2023/09/17 01:28:33;;;;;;;12.9;9.6;;;;;;;13.9;92.35;;;;;
2023/09/17 01:39:33;;;;;;;14.3;10.1;;;;;;;14.02;91.81;;;;;
2023/09/17 01:49:33;;;;;;;14.3;10.1;;;;;;;14.24;91.7;;;;;
2023/09/17 01:59:33;;;;;;;14.3;10.1;;;;;;;14.31;91.49;;;;;
2023/09/17 02:10:33;;;;;;;14.1;10.9;;;;;;;14.1;91.79;;;;;
2023/09/17 02:20:33;;;;;;;14.1;10.9;;;;;;;14.33;91.76;;;;;
2023/09/17 02:31:33;;;;;;;14.1;10.9;;;;;;;14.31;90.85;;;;;
2023/09/17 02:41:33;;;;;;;12.3;10.5;;;;;;;14.15;90.4;;;;;
2023/09/17 02:51:33;;;;;;;12.3;10.5;;;;;;;14.03;90.7;;;;;
2023/09/17 03:01:35;;;;;;;12.3;10.5;;;;;;;13.93;90.25;;;;;
2023/09/17 03:12:33;;;;;;;11.4;9.1;;;;;;;13.72;90.42;;;;;
2023/09/17 03:22:34;;;;;;;11.4;9.1;;;;;;;13.73;92.24;;;;;
2023/09/17 03:33:33;;;;;;;11.4;9.1;;;;;;;13.73;91.89;;;;;
2023/09/17 03:44:33;;;;;;;13.9;10.7;;;;;;;13.93;91.78;;;;;
2023/09/17 03:54:34;;;;;;;13.9;10.7;;;;;;;13.95;91.67;;;;;
2023/09/17 04:05:34;;;;;;;13.9;10.7;;;;;;;13.93;91.65;;;;;
2023/09/17 04:16:33;;;;;;;12.3;7;;;;;;;13.96;91.12;;;;;
2023/09/17 04:27:34;;;;;;;12.3;7;;;;;;;14.01;90.81;;;;;
2023/09/17 04:38:34;;;;;;;14.8;10.7;;;;;;;14.13;91.3;;;;;
2023/09/17 04:49:35;;;;;;;14.8;10.7;;;;;;;14.27;91.87;;;;;
2023/09/17 04:59:33;;;;;;;14.8;10.7;;;;;;;14.52;91.98;;;;;
2023/09/17 05:10:33;;;;;;;13.1;9.8;;;;;;;14.95;91.71;;;;;
2023/09/17 05:20:35;;;;;;;13.1;9.8;;;;;;;15.16;91.7;;;;;
2023/09/17 05:30:34;;;;;;;13.1;9.8;;;;;;;15.47;91.79;;;;;
2023/09/17 05:40:34;;;;;;;16;11.7;;;;;;;15.74;90.92;;;;;
2023/09/17 05:51:33;;;;;;;16;11.7;;;;;;;16.1;90.43;;;;;
2023/09/17 06:01:33;;;;;;;16;11.7;;;;;;;16.22;89.73;;;;;
2023/09/17 06:12:33;;;;;;;13.7;11.2;;;;;;;16.64;88.24;;;;;
2023/09/17 06:22:33;;;;;;;13.7;11.2;;;;;;;16.95;88.89;;;;;
2023/09/17 06:32:33;;;;;;;13.7;11.2;;;;;;;17.06;87.61;;;;;
2023/09/17 06:42:33;;;;;;;16.9;10.8;;;;;;;17.38;87.72;;;;;
2023/09/17 06:53:34;;;;;;;16.9;10.8;;;;;;;17.77;88.45;;;;;
2023/09/17 07:03:33;;;;;;;16.9;10.8;;;;;;;18.2;88.11;;;;;
2023/09/17 07:14:33;;;;;;;12.9;10.1;;;;;;;19.03;86.65;;;;;
2023/09/17 07:24:33;;;;;;;12.9;10.1;;;;;;;20;82.9;;;;;
2023/09/17 07:35:34;;;;;;;12.9;10.1;;;;;;;20.97;80.64;;;;;
2023/09/17 07:45:34;;;;;;;8.3;6.3;;;;;;;21.45;78.13;;;;;
2023/09/17 07:55:33;;;;;;;8.3;6.3;;;;;;;22.15;76.93;;;;;
2023/09/17 08:06:34;;;;;;;9.1;5.8;;;;;;;22.37;74.6;;;;;
2023/09/17 08:16:35;;;;;;;9.1;5.8;;;;;;;22.32;74.9;;;;;
2023/09/17 08:27:34;;;;;;;9.1;5.8;;;;;;;22.37;74.76;;;;;
2023/09/17 08:38:33;;;;;;;9.1;5.9;;;;;;;22.69;71.58;;;;;
2023/09/17 08:48:34;;;;;;;9.1;5.9;;;;;;;23.13;69.63;;;;;
2023/09/17 08:58:34;;;;;;;9.1;5.9;;;;;;;23.13;66.03;;;;;
2023/09/17 09:08:34;;;;;;;;;;;;;;;;;;;;;
2023/09/17 09:19:34;;;;;;;;;;;;;;;;;;;;;
2023/09/17 09:29:34;;;;;;;8;3.1;;;;;;;24.21;62.31;;;;;
2023/09/17 09:40:34;;;;;;;8;3.1;;;;;;;24.57;56.68;;;;;
2023/09/17 09:51:35;;;;;;;8;3.1;;;;;;;24.82;56.92;;;;;
2023/09/17 10:01:34;;;;;;;5.5;2.1;;;;;;;25.2;56.39;;;;;
2023/09/17 10:11:34;;;;;;;5.5;2.1;;;;;;;25.27;54.09;;;;;
2023/09/17 10:22:34;;;;;;;5.5;2.1;;;;;;;25.1;55.46;;;;;
2023/09/17 10:33:34;;;;;;;4;2.2;;;;;;;25.03;55.15;;;;;
2023/09/17 10:44:36;;;;;;;4;2.2;;;;;;;25.28;54.91;;;;;
2023/09/17 10:54:34;;;;;;;4;2.2;;;;;;;26.17;53.44;;;;;
2023/09/17 11:04:34;;;;;;;3.7;2.1;;;;;;;26.26;53.73;;;;;
2023/09/17 11:14:34;;;;;;;3.7;2.1;;;;;;;27.03;49.94;;;;;
2023/09/17 11:25:34;;;;;;;3.7;2.1;;;;;;;27.05;51.26;;;;;
2023/09/17 11:35:34;;;;;;;3.5;1.9;;;;;;;27.37;51.78;;;;;
2023/09/17 11:46:34;;;;;;;3.5;1.9;;;;;;;26.97;49.44;;;;;
2023/09/17 11:57:34;;;;;;;3.7;2.1;;;;;;;26.63;52.27;;;;;
2023/09/17 12:07:34;;;;;;;3.7;2.1;;;;;;;26.5;52.19;;;;;
2023/09/17 12:17:34;;;;;;;3.7;2.1;;;;;;;26.79;51.97;;;;;
2023/09/17 12:28:34;;;;;;;4.1;2.2;;;;;;;26.75;50.39;;;;;
2023/09/17 12:38:34;;;;;;;4.1;2.2;;;;;;;27.32;48.4;;;;;
2023/09/17 12:49:34;;;;;;;4.1;2.2;;;;;;;27.57;50.09;;;;;
2023/09/17 12:59:34;;;;;;;4.1;2.3;;;;;;;27.75;48.74;;;;;
2023/09/17 13:09:34;;;;;;;4.1;2.3;;;;;;;27.56;49.17;;;;;
2023/09/17 13:20:34;;;;;;;4.1;2.3;;;;;;;27.25;50.25;;;;;
2023/09/17 13:30:34;;;;;;;4.2;2;;;;;;;27.22;51.28;;;;;
2023/09/17 13:40:34;;;;;;;4.2;2;;;;;;;26.88;51.72;;;;;
2023/09/17 13:51:34;;;;;;;4.2;2;;;;;;;27.01;56.45;;;;;
2023/09/17 14:01:34;;;;;;;5.3;1.9;;;;;;;27.25;50.74;;;;;
2023/09/17 14:11:35;;;;;;;5.3;1.9;;;;;;;27.29;49.82;;;;;
2023/09/17 14:22:34;;;;;;;5.3;1.9;;;;;;;26.94;50.22;;;;;
2023/09/17 14:32:34;;;;;;;3.3;1.9;;;;;;;26.8;50.33;;;;;
2023/09/17 14:43:34;;;;;;;3.3;1.9;;;;;;;26.81;49.73;;;;;
2023/09/17 14:54:34;;;;;;;3.3;1.9;;;;;;;26.7;50.01;;;;;
2023/09/17 15:04:34;;;;;;;4.5;1.9;;;;;;;26.91;56.95;;;;;
2023/09/17 15:15:34;;;;;;;4.5;1.9;;;;;;;27.87;51.94;;;;;
2023/09/17 15:26:34;;;;;;;4.5;1.9;;;;;;;30.91;47.41;;;;;
2023/09/17 15:36:37;;;;;;;4.5;2.1;;;;;;;32.04;42.74;;;;;
2023/09/17 15:46:35;;;;;;;4.5;2.1;;;;;;;29.28;46.87;;;;;
2023/09/17 15:56:34;;;;;;;4.5;2.1;;;;;;;27.51;50.03;;;;;
2023/09/17 16:07:36;;;;;;;4.1;2.1;;;;;;;26.68;53.6;;;;;
2023/09/17 16:18:34;;;;;;;4.1;2.1;;;;;;;26.07;56.35;;;;;
2023/09/17 16:28:34;;;;;;;5.4;3.2;;;;;;;25.38;57.19;;;;;
2023/09/17 16:38:34;;;;;;;5.4;3.2;;;;;;;24.45;60.6;;;;;
2023/09/17 16:49:34;;;;;;;5.4;3.2;;;;;;;23.39;63.25;;;;;
2023/09/17 16:59:34;;;;;;;5.6;3.2;;;;;;;22.53;64.66;;;;;
2023/09/17 17:10:34;;;;;;;5.6;3.2;;;;;;;21.7;66.46;;;;;
2023/09/17 17:20:34;;;;;;;5.6;3.2;;;;;;;21.02;70.04;;;;;
2023/09/17 17:31:34;;;;;;;7.2;4;;;;;;;20.6;72.57;;;;;
2023/09/17 17:42:34;;;;;;;7.2;4;;;;;;;20.25;74.95;;;;;
2023/09/17 17:52:34;;;;;;;7.2;4;;;;;;;19.97;75.18;;;;;
2023/09/17 18:03:34;;;;;;;7.5;4.9;;;;;;;19.65;75.24;;;;;
2023/09/17 18:13:34;;;;;;;7.5;4.9;;;;;;;19.31;76.09;;;;;
2023/09/17 18:24:34;;;;;;;7.5;4.9;;;;;;;18.91;76.26;;;;;
2023/09/17 18:34:34;;;;;;;13.7;10.9;;;;;;;18.61;76.74;;;;;
2023/09/17 18:45:36;;;;;;;13.7;10.9;;;;;;;18.45;77.91;;;;;
2023/09/17 18:56:34;;;;;;;13.7;10.9;;;;;;;18.28;77.95;;;;;
2023/09/17 19:07:34;;;;;;;7.1;4.7;;;;;;;18.02;79.41;;;;;
2023/09/17 19:18:37;;;;;;;7.1;4.7;;;;;;;17.78;79.5;;;;;
2023/09/17 19:28:34;;;;;;;7;4.7;;;;;;;17.57;80.38;;;;;
2023/09/17 19:38:34;;;;;;;7;4.7;;;;;;;17.42;81.84;;;;;
2023/09/17 19:48:34;;;;;;;7;4.7;;;;;;;17.28;83.81;;;;;
2023/09/17 19:59:35;;;;;;;8.4;6.5;;;;;;;17.18;84.7;;;;;
2023/09/17 20:09:34;;;;;;;8.4;6.5;;;;;;;17.12;85.25;;;;;
2023/09/17 20:20:34;;;;;;;8.4;6.5;;;;;;;17.02;85.25;;;;;
2023/09/17 20:31:36;;;;;;;10.1;6.9;;;;;;;16.86;85.68;;;;;
2023/09/17 20:41:34;;;;;;;10.1;6.9;;;;;;;16.77;86.81;;;;;
2023/09/17 20:51:34;;;;;;;10.1;6.9;;;;;;;16.67;87.91;;;;;
2023/09/17 21:02:34;;;;;;;7.6;5.7;;;;;;;16.59;87.28;;;;;
2023/09/17 21:12:34;;;;;;;7.6;5.7;;;;;;;16.67;86.77;;;;;
2023/09/17 21:23:36;;;;;;;7.6;5.7;;;;;;;16.77;87.13;;;;;
2023/09/17 21:33:34;;;;;;;8.5;5.6;;;;;;;16.75;87.15;;;;;
2023/09/17 21:43:34;;;;;;;8.5;5.6;;;;;;;16.6;88.24;;;;;
2023/09/17 21:54:34;;;;;;;8.5;5.6;;;;;;;16.55;87.44;;;;;
2023/09/17 22:04:35;;;;;;;7.2;5.3;;;;;;;16.41;87.31;;;;;
2023/09/17 22:15:35;;;;;;;7.2;5.3;;;;;;;16.31;87.28;;;;;
2023/09/17 22:25:35;;;;;;;7.2;5.3;;;;;;;16.21;87.59;;;;;
2023/09/17 22:35:35;;;;;;;13.2;9.8;;;;;;;16.17;89.22;;;;;
2023/09/17 22:45:34;;;;;;;13.2;9.8;;;;;;;16.07;88.72;;;;;
2023/09/17 22:55:34;;;;;;;13.2;9.8;;;;;;;16.01;88.57;;;;;
2023/09/17 23:06:34;;;;;;;14.3;11;;;;;;;15.89;88.17;;;;;
2023/09/17 23:16:35;;;;;;;14.3;11;;;;;;;15.77;88.48;;;;;
2023/09/17 23:27:34;;;;;;;14.3;11;;;;;;;15.72;88.74;;;;;
2023/09/17 23:38:34;;;;;;;14.5;8.5;;;;;;;15.68;89.03;;;;;
2023/09/17 23:48:34;;;;;;;14.5;8.5;;;;;;;15.68;89.08;;;;;
2023/09/17 23:58:34;;;;;;;10.7;7.2;;;;;;;15.59;89.18;;;;;
